createdAt,value
2022-10-17T00:00:41.882Z,101718.78
2022-10-17T00:03:09.061Z,101723.22
2022-10-17T00:05:39.778Z,101728.59
2022-10-17T00:08:06.429Z,101732.09
2022-10-17T00:10:32.969Z,101733.03
2022-10-17T00:12:59.532Z,101732.19
2022-10-17T00:15:26.128Z,101744.72
2022-10-17T00:17:52.659Z,101734.94
2022-10-17T00:20:19.323Z,101733.13
2022-10-17T00:22:45.916Z,101716.09
2022-10-17T00:25:12.458Z,101715.28
2022-10-17T00:27:40.292Z,101712.56
2022-10-17T00:30:10.392Z,101721.53
2022-10-17T00:32:36.927Z,101721.53
2022-10-17T00:35:03.633Z,101721.53
2022-10-17T00:37:31.603Z,101709.91
2022-10-17T00:39:58.470Z,101712.63
2022-10-17T00:42:25.874Z,101711.66
2022-10-17T00:45:31.271Z,101723.22
2022-10-17T00:48:04.122Z,101702.69
2022-10-17T00:50:30.936Z,101702.69
2022-10-17T00:53:00.100Z,101703.69
2022-10-17T00:55:29.553Z,101705.41
2022-10-17T00:57:57.352Z,101703.69
2022-10-17T01:00:24.920Z,101705.44
2022-10-17T01:02:51.469Z,101709.00
2022-10-17T01:05:18.784Z,101703.69
2022-10-17T01:07:46.365Z,101701.81
2022-10-17T01:10:14.289Z,101701.94
2022-10-17T01:13:00.653Z,101696.50
2022-10-17T01:16:04.608Z,101685.72
2022-10-17T01:18:46.872Z,101691.13
2022-10-17T01:22:01.674Z,101678.56
2022-10-17T01:24:49.606Z,101679.53
2022-10-17T01:27:34.152Z,101687.53
2022-10-17T01:30:09.399Z,101684.06
2022-10-17T01:33:06.940Z,101684.03
2022-10-17T01:36:03.272Z,101673.19
2022-10-17T01:38:36.915Z,101671.59
2022-10-17T01:41:07.470Z,101666.16
2022-10-17T01:43:53.557Z,101669.66
2022-10-17T01:46:28.913Z,101664.38
2022-10-17T01:48:56.017Z,101653.69
2022-10-17T01:51:29.254Z,101647.41
2022-10-17T01:54:01.834Z,101640.22
2022-10-17T01:56:30.585Z,101647.47
2022-10-17T01:59:00.991Z,101634.88
2022-10-17T02:01:29.152Z,101638.53
2022-10-17T02:03:57.412Z,101628.63
2022-10-17T02:06:23.956Z,101612.53
2022-10-17T02:08:51.283Z,101607.16
2022-10-17T02:11:22.533Z,101604.47
2022-10-17T02:14:15.264Z,101604.44
2022-10-17T02:17:03.392Z,101599.03
2022-10-17T02:19:56.464Z,101586.56
2022-10-17T02:22:51.758Z,101578.53
2022-10-17T02:25:39.030Z,101587.47
2022-10-17T02:28:11.541Z,101582.06
2022-10-17T02:30:47.379Z,101572.31
2022-10-17T02:33:20.619Z,101573.22
2022-10-17T02:35:53.496Z,101560.56
2022-10-17T02:38:20.560Z,101559.69
2022-10-17T02:40:47.169Z,101560.63
2022-10-17T02:43:14.621Z,101560.72
2022-10-17T02:45:41.829Z,101557.09
2022-10-17T02:48:12.898Z,101551.69
2022-10-17T02:51:14.677Z,101562.41
2022-10-17T02:53:50.119Z,101553.53
2022-10-17T02:56:22.568Z,101562.47
2022-10-17T02:58:53.580Z,101557.13
2022-10-17T03:01:20.951Z,101546.31
2022-10-17T03:03:47.576Z,101545.44
2022-10-17T03:06:14.117Z,101541.06
2022-10-17T03:08:40.654Z,101537.41
2022-10-17T03:11:07.252Z,101532.06
2022-10-17T03:13:36.232Z,101532.16
2022-10-17T03:16:06.361Z,101532.22
2022-10-17T03:18:32.907Z,101532.13
2022-10-17T03:20:59.441Z,101531.09
2022-10-17T03:23:25.956Z,101524.06
2022-10-17T03:25:52.495Z,101520.47
2022-10-17T03:28:19.028Z,101514.25
2022-10-17T03:30:45.564Z,101524.97
2022-10-17T03:33:12.142Z,101513.19
2022-10-17T03:35:40.255Z,101516.94
2022-10-17T03:38:06.893Z,101507.13
2022-10-17T03:40:33.449Z,101506.22
2022-10-17T03:42:59.974Z,101493.66
2022-10-17T03:45:26.505Z,101491.91
2022-10-17T03:47:53.041Z,101508.88
2022-10-17T03:50:19.572Z,101521.31
2022-10-17T03:52:49.610Z,101521.38
2022-10-17T03:55:16.752Z,101510.72
2022-10-17T03:57:45.473Z,101514.19
2022-10-17T04:00:13.062Z,101516.97
2022-10-17T04:02:39.663Z,101518.66
2022-10-17T04:05:06.794Z,101517.75
2022-10-17T04:07:33.355Z,101515.09
2022-10-17T04:09:59.915Z,101528.50
2022-10-17T04:12:26.711Z,101512.41
2022-10-17T04:14:53.424Z,101512.41
2022-10-17T04:17:19.990Z,101507.94
2022-10-17T04:19:46.569Z,101512.41
2022-10-17T04:22:13.377Z,101514.25
2022-10-17T04:24:39.909Z,101516.00
2022-10-17T04:27:06.477Z,101521.38
2022-10-17T04:29:33.034Z,101529.41
2022-10-17T04:31:59.581Z,101527.56
2022-10-17T04:34:26.111Z,101530.47
2022-10-17T04:36:52.640Z,101521.38
2022-10-17T04:39:19.186Z,101529.47
2022-10-17T04:41:45.713Z,101516.00
2022-10-17T04:44:12.264Z,101519.72
2022-10-17T04:46:38.837Z,101505.28
2022-10-17T04:49:05.367Z,101506.28
2022-10-17T04:51:31.956Z,101514.34
2022-10-17T04:53:58.522Z,101517.84
2022-10-17T04:56:25.242Z,101521.44
2022-10-17T04:58:51.868Z,101515.34
2022-10-17T05:01:20.777Z,101521.56
2022-10-17T05:03:47.877Z,101516.13
2022-10-17T05:06:19.999Z,101506.19
2022-10-17T05:08:46.726Z,101507.13
2022-10-17T05:11:17.104Z,101496.50
2022-10-17T05:13:43.664Z,101495.66
2022-10-17T05:16:10.846Z,101497.38
2022-10-17T05:18:37.383Z,101500.88
2022-10-17T05:21:04.526Z,101497.31
2022-10-17T05:23:31.099Z,101488.25
2022-10-17T05:25:57.693Z,101492.88
2022-10-17T05:28:24.451Z,101496.41
2022-10-17T05:30:51.145Z,101484.72
2022-10-17T05:33:17.781Z,101487.59
2022-10-17T05:35:44.361Z,101485.78
2022-10-17T05:38:10.907Z,101480.41
2022-10-17T05:40:39.353Z,101469.69
2022-10-17T05:43:06.049Z,101469.66
2022-10-17T05:45:32.659Z,101471.38
2022-10-17T05:47:59.264Z,101470.50
2022-10-17T05:50:25.844Z,101487.56
2022-10-17T05:52:54.027Z,101499.19
2022-10-17T05:55:20.581Z,101495.53
2022-10-17T05:57:47.248Z,101482.22
2022-10-17T06:00:14.105Z,101483.84
2022-10-17T06:02:40.649Z,101473.34
2022-10-17T06:05:07.421Z,101477.78
2022-10-17T06:07:33.984Z,101494.75
2022-10-17T06:10:00.546Z,101494.72
2022-10-17T06:12:27.313Z,101476.84
2022-10-17T06:14:54.137Z,101487.66
2022-10-17T06:17:20.677Z,101496.47
2022-10-17T06:19:47.652Z,101499.06
2022-10-17T06:22:14.535Z,101500.19
2022-10-17T06:24:41.418Z,101507.25
2022-10-17T06:27:11.101Z,101509.03
2022-10-17T06:29:38.636Z,101516.16
2022-10-17T06:32:06.327Z,101515.28
2022-10-17T06:34:33.394Z,101513.44
2022-10-17T06:36:59.926Z,101523.34
2022-10-17T06:39:33.685Z,101541.28
2022-10-17T06:42:01.100Z,101544.75
2022-10-17T06:44:31.574Z,101546.53
2022-10-17T06:46:59.057Z,101538.53
2022-10-17T06:49:25.792Z,101555.53
2022-10-17T06:51:52.340Z,101557.38
2022-10-17T06:54:18.871Z,101548.50
2022-10-17T06:56:45.465Z,101557.31
2022-10-17T06:59:12.293Z,101557.34
2022-10-17T07:01:40.686Z,101548.44
2022-10-17T07:04:09.889Z,101543.16
2022-10-17T07:06:36.443Z,101540.31
2022-10-17T07:09:03.465Z,101539.44
2022-10-17T07:11:30.000Z,101553.66
2022-10-17T07:13:56.555Z,101551.84
2022-10-17T07:16:23.176Z,101553.72
2022-10-17T07:18:50.744Z,101559.97
2022-10-17T07:21:17.520Z,101550.13
2022-10-17T07:23:44.177Z,101559.00
2022-10-17T07:26:12.845Z,101560.84
2022-10-17T07:28:41.672Z,101569.66
2022-10-17T07:31:14.912Z,101576.84
2022-10-17T07:33:42.124Z,101580.47
2022-10-17T07:36:09.223Z,101576.84
2022-10-17T07:38:36.701Z,101566.22
2022-10-17T07:41:05.781Z,101569.69
2022-10-17T07:43:33.147Z,101565.25
2022-10-17T07:46:01.037Z,101571.53
2022-10-17T07:48:27.626Z,101564.38
2022-10-17T07:50:54.177Z,101571.47
2022-10-17T07:53:20.782Z,101583.16
2022-10-17T07:55:48.132Z,101594.72
2022-10-17T07:58:14.740Z,101601.00
2022-10-17T08:00:41.513Z,101592.91
2022-10-17T08:03:08.573Z,101592.91
2022-10-17T08:05:35.885Z,101602.69
2022-10-17T08:08:02.429Z,101600.06
2022-10-17T08:10:29.737Z,101605.38
2022-10-17T08:12:57.441Z,101601.84
2022-10-17T08:15:29.334Z,101601.84
2022-10-17T08:17:58.630Z,101601.78
2022-10-17T08:20:25.149Z,101608.97
2022-10-17T08:22:53.170Z,101603.59
2022-10-17T08:25:19.721Z,101600.13
2022-10-17T08:27:46.501Z,101606.25
2022-10-17T08:30:13.282Z,101594.63
2022-10-17T08:32:40.019Z,101595.59
2022-10-17T08:35:06.892Z,101592.84
2022-10-17T08:37:33.849Z,101591.06
2022-10-17T08:40:00.656Z,101592.00
2022-10-17T08:42:51.209Z,101593.69
2022-10-17T08:45:33.209Z,101607.16
2022-10-17T08:48:06.165Z,101610.78
2022-10-17T08:50:40.243Z,101613.44
2022-10-17T08:53:25.078Z,101609.00
2022-10-17T08:55:53.463Z,101612.47
2022-10-17T08:58:26.052Z,101619.69
2022-10-17T09:01:24.129Z,101632.16
2022-10-17T09:03:59.609Z,101665.25
2022-10-17T09:06:30.182Z,101679.63
2022-10-17T09:09:44.473Z,101695.75
2022-10-17T09:12:18.471Z,101707.31
2022-10-17T09:14:44.943Z,101713.63
2022-10-17T09:17:26.395Z,101716.25
2022-10-17T09:20:26.042Z,101717.19
2022-10-17T09:23:01.567Z,101735.91
2022-10-17T09:25:28.373Z,101738.66
2022-10-17T09:28:04.152Z,101738.63
2022-10-17T09:31:01.501Z,101752.97
2022-10-17T09:33:55.880Z,101750.28
2022-10-17T09:36:36.864Z,101762.75
2022-10-17T09:39:13.236Z,101768.13
2022-10-17T09:44:35.820Z,101778.00
2022-10-17T09:47:24.317Z,101793.22
2022-10-17T09:49:51.701Z,101791.44
2022-10-17T09:52:41.077Z,101794.13
2022-10-17T09:55:21.612Z,101798.59
2022-10-17T09:57:53.541Z,101785.16
2022-10-17T10:00:23.655Z,101786.06
2022-10-17T10:02:50.336Z,101791.47
2022-10-17T10:05:20.560Z,101797.69
2022-10-17T10:08:03.447Z,101794.09
2022-10-17T10:10:30.865Z,101798.56
2022-10-17T10:13:15.891Z,101788.72
2022-10-17T10:15:50.089Z,101778.88
2022-10-17T10:18:36.221Z,101788.72
2022-10-17T10:21:23.821Z,101778.81
2022-10-17T10:24:04.077Z,101795.81
2022-10-17T10:26:42.901Z,101787.75
2022-10-17T10:29:30.788Z,101789.53
2022-10-17T10:32:07.202Z,101785.03
2022-10-17T10:34:35.949Z,101776.09
2022-10-17T10:37:23.797Z,101768.06
2022-10-17T10:39:53.308Z,101782.38
2022-10-17T10:42:23.263Z,101789.50
2022-10-17T10:44:50.568Z,101785.06
2022-10-17T10:47:23.232Z,101786.81
2022-10-17T10:50:13.977Z,101774.28
2022-10-17T10:52:45.170Z,101765.34
2022-10-17T10:55:27.866Z,101768.94
2022-10-17T10:57:58.650Z,101765.38
2022-10-17T11:00:26.750Z,101757.22
2022-10-17T11:03:14.841Z,101746.59
2022-10-17T11:05:49.711Z,101759.91
2022-10-17T11:08:46.205Z,101749.16
2022-10-17T11:11:38.744Z,101778.72
2022-10-17T11:14:31.365Z,101784.94
2022-10-17T11:17:25.794Z,101780.50
2022-10-17T11:20:15.142Z,101796.63
2022-10-17T11:22:46.577Z,101804.66
2022-10-17T11:25:34.563Z,101812.72
2022-10-17T11:28:04.981Z,101813.59
2022-10-17T11:33:21.011Z,101825.28
2022-10-17T11:35:51.037Z,101830.63
2022-10-17T11:38:51.456Z,101832.38
2022-10-17T11:41:24.064Z,101828.78
2022-10-17T11:43:55.337Z,101839.53
2022-10-17T11:46:24.406Z,101848.50
2022-10-17T11:48:58.809Z,101845.00
2022-10-17T11:54:16.735Z,101841.31
2022-10-17T11:57:04.497Z,101855.66
2022-10-17T12:00:11.952Z,101863.72
2022-10-17T12:02:41.318Z,101868.19
2022-10-17T12:05:16.559Z,101871.78
2022-10-17T12:07:45.443Z,101875.31
2022-10-17T12:10:43.925Z,101875.31
2022-10-17T12:13:33.704Z,101879.78
2022-10-17T12:16:19.347Z,101885.16
2022-10-17T12:19:09.861Z,101887.88
2022-10-17T12:22:03.849Z,101876.22
2022-10-17T12:24:37.895Z,101875.31
2022-10-17T12:27:37.422Z,101872.56
2022-10-17T12:30:13.501Z,101877.06
2022-10-17T12:33:07.447Z,101884.19
2022-10-17T12:35:36.561Z,101891.38
2022-10-17T12:38:24.520Z,101890.44
2022-10-17T12:40:53.419Z,101896.75
2022-10-17T12:43:29.069Z,101900.25
2022-10-17T12:45:59.757Z,101894.88
2022-10-17T12:48:38.762Z,101906.56
2022-10-17T12:51:34.369Z,101903.88
2022-10-17T12:54:00.493Z,101903.88
2022-10-17T12:56:42.991Z,101907.44
2022-10-17T12:59:31.277Z,101911.03
2022-10-17T13:02:00.260Z,101927.19
2022-10-17T13:04:27.673Z,101918.25
2022-10-17T13:06:58.719Z,101928.06
2022-10-17T13:09:31.024Z,101933.44
2022-10-17T13:12:00.364Z,101928.06
2022-10-17T13:14:27.382Z,101934.31
2022-10-17T13:17:02.016Z,101937.91
2022-10-17T13:19:40.978Z,101927.16
2022-10-17T13:22:15.642Z,101915.47
2022-10-17T13:24:42.183Z,101916.38
2022-10-17T13:27:30.086Z,101936.13
2022-10-17T13:29:58.333Z,101934.31
2022-10-17T13:32:26.952Z,101934.31
2022-10-17T13:35:41.954Z,101943.28
2022-10-17T13:38:12.677Z,101943.31
2022-10-17T13:40:49.883Z,101946.88
2022-10-17T13:43:20.874Z,101947.75
2022-10-17T13:45:50.715Z,101950.44
2022-10-17T13:48:28.565Z,101958.47
2022-10-17T13:51:03.049Z,101958.50
2022-10-17T13:53:39.958Z,101963.00
2022-10-17T13:56:33.699Z,101964.75
2022-10-17T13:59:18.755Z,101978.19
2022-10-17T14:01:45.485Z,101978.16
2022-10-17T14:04:19.564Z,101977.31
2022-10-17T14:06:49.768Z,101973.72
2022-10-17T14:09:29.463Z,101970.09
2022-10-17T14:12:03.780Z,101977.25
2022-10-17T14:14:37.506Z,101974.56
2022-10-17T14:17:23.205Z,101984.44
2022-10-17T14:20:06.545Z,101986.22
2022-10-17T14:22:40.697Z,101996.97
2022-10-17T14:25:37.009Z,101995.16
2022-10-17T14:28:14.491Z,101998.78
2022-10-17T14:30:56.240Z,101997.88
2022-10-17T14:33:27.468Z,102008.63
2022-10-17T14:35:56.869Z,102016.66
2022-10-17T14:38:23.809Z,102007.75
2022-10-17T14:40:52.643Z,102008.63
2022-10-17T14:43:23.950Z,102019.31
2022-10-17T14:45:50.519Z,102022.97
2022-10-17T14:48:19.655Z,102027.41
2022-10-17T14:51:12.272Z,102029.19
2022-10-17T14:53:39.656Z,102021.97
2022-10-17T14:56:22.180Z,102009.47
2022-10-17T14:58:48.783Z,102011.31
2022-10-17T15:01:15.349Z,102013.09
2022-10-17T15:03:41.946Z,102014.91
2022-10-17T15:06:40.646Z,102011.22
2022-10-17T15:09:07.449Z,102011.22
2022-10-17T15:11:33.992Z,102026.50
2022-10-17T15:14:00.532Z,102021.97
2022-10-17T15:16:30.903Z,102029.19
2022-10-17T15:18:57.556Z,102030.97
2022-10-17T15:21:37.577Z,102032.78
2022-10-17T15:24:07.229Z,102024.66
2022-10-17T15:26:34.389Z,102025.59
2022-10-17T15:29:02.135Z,102022.03
2022-10-17T15:31:29.751Z,102030.97
2022-10-17T15:33:56.290Z,102022.84
2022-10-17T15:36:34.085Z,102032.78
2022-10-17T15:39:01.459Z,102037.22
2022-10-17T15:41:30.057Z,102032.69
2022-10-17T15:43:57.040Z,102043.50
2022-10-17T15:46:28.836Z,102047.06
2022-10-17T15:48:56.564Z,102048.81
2022-10-17T15:51:23.772Z,102052.44
2022-10-17T15:53:50.332Z,102054.19
2022-10-17T15:56:26.847Z,102066.75
2022-10-17T15:58:53.696Z,102063.22
2022-10-17T16:01:27.060Z,102068.63
2022-10-17T16:03:53.951Z,102077.56
2022-10-17T16:06:21.825Z,102081.13
2022-10-17T16:08:49.467Z,102083.84
2022-10-17T16:11:45.378Z,102082.91
2022-10-17T16:14:14.597Z,102088.34
2022-10-17T16:16:41.319Z,102099.09
2022-10-17T16:19:08.602Z,102086.47
2022-10-17T16:21:36.523Z,102098.19
2022-10-17T16:24:03.699Z,102100.81
2022-10-17T16:26:30.251Z,102101.75
2022-10-17T16:28:58.199Z,102109.84
2022-10-17T16:31:29.329Z,102109.78
2022-10-17T16:33:57.345Z,102108.91
2022-10-17T16:36:24.043Z,102118.75
2022-10-17T16:41:27.315Z,102114.28
2022-10-17T16:43:55.544Z,102116.97
2022-10-17T16:46:23.011Z,102116.97
2022-10-17T16:48:49.802Z,102127.72
2022-10-17T16:51:18.372Z,102130.41
2022-10-17T16:53:50.273Z,102140.28
2022-10-17T16:56:20.401Z,102138.44
2022-10-17T16:58:47.248Z,102144.75
2022-10-17T17:01:16.173Z,102150.09
2022-10-17T17:03:44.480Z,102145.63
2022-10-17T17:06:16.327Z,102137.56
2022-10-17T17:08:43.503Z,102140.25
2022-10-17T17:11:11.356Z,102147.44
2022-10-17T17:13:38.636Z,102149.28
2022-10-17T17:16:17.149Z,102134.94
2022-10-17T17:18:45.983Z,102141.25
2022-10-17T17:21:13.192Z,102147.47
2022-10-17T17:23:41.269Z,102145.72
2022-10-17T17:26:10.391Z,102150.22
2022-10-17T17:28:36.978Z,102143.03
2022-10-17T17:31:07.695Z,102146.56
2022-10-17T17:33:34.278Z,102168.09
2022-10-17T17:36:02.001Z,102173.50
2022-10-17T17:38:29.582Z,102178.00
2022-10-17T17:40:56.140Z,102174.38
2022-10-17T17:43:22.741Z,102174.38
2022-10-17T17:45:49.285Z,102181.56
2022-10-17T17:48:15.840Z,102191.44
2022-10-17T17:50:42.776Z,102189.66
2022-10-17T17:53:10.261Z,102195.91
2022-10-17T17:55:36.905Z,102194.09
2022-10-17T17:58:03.885Z,102192.31
2022-10-17T18:00:30.487Z,102192.34
2022-10-17T18:02:57.312Z,102197.72
2022-10-17T18:05:24.133Z,102206.69
2022-10-17T18:07:50.672Z,102205.75
2022-10-17T18:10:17.309Z,102207.56
2022-10-17T18:12:43.891Z,102210.22
2022-10-17T18:15:10.997Z,102219.22
2022-10-17T18:17:37.912Z,102231.75
2022-10-17T18:20:06.056Z,102224.59
2022-10-17T18:22:32.817Z,102235.31
2022-10-17T18:24:59.603Z,102233.56
2022-10-17T18:27:26.171Z,102243.41
2022-10-17T18:29:52.790Z,102244.31
2022-10-17T18:32:19.332Z,102253.22
2022-10-17T18:34:45.944Z,102258.59
2022-10-17T18:37:12.472Z,102259.50
2022-10-17T18:39:39.091Z,102262.22
2022-10-17T18:42:05.615Z,102265.78
2022-10-17T18:44:32.220Z,102274.75
2022-10-17T18:47:02.995Z,102281.94
2022-10-17T18:49:30.878Z,102285.50
2022-10-17T18:51:57.616Z,102296.25
2022-10-17T18:54:24.457Z,102299.81
2022-10-17T18:56:53.692Z,102304.28
2022-10-17T18:59:20.991Z,102296.22
2022-10-17T19:01:48.066Z,102290.84
2022-10-17T19:04:14.901Z,102298.06
2022-10-17T19:06:41.803Z,102306.97
2022-10-17T19:09:09.861Z,102314.16
2022-10-17T19:11:37.585Z,102314.16
2022-10-17T19:14:13.133Z,102307.00
2022-10-17T19:16:50.999Z,102306.97
2022-10-17T19:19:21.384Z,102299.81
2022-10-17T19:21:48.479Z,102306.97
2022-10-17T19:24:22.889Z,102324.91
2022-10-17T19:26:50.812Z,102324.91
2022-10-17T19:29:18.252Z,102321.31
2022-10-17T19:31:45.633Z,102317.72
2022-10-17T19:34:12.797Z,102312.38
2022-10-17T19:36:39.679Z,102328.50
2022-10-17T19:39:12.228Z,102329.38
2022-10-17T19:41:43.613Z,102333.84
2022-10-17T19:44:10.354Z,102342.81
2022-10-17T19:46:37.233Z,102351.75
2022-10-17T19:49:04.222Z,102348.19
2022-10-17T19:51:30.831Z,102355.34
2022-10-17T19:54:00.339Z,102352.66
2022-10-17T19:56:28.539Z,102349.06
2022-10-17T19:58:56.235Z,102349.97
2022-10-17T20:01:28.357Z,102358.91
2022-10-17T20:03:55.788Z,102357.13
2022-10-17T20:06:22.750Z,102361.63
2022-10-17T20:08:49.493Z,102366.97
2022-10-17T20:11:18.717Z,102375.94
2022-10-17T20:13:45.440Z,102367.00
2022-10-17T20:16:17.692Z,102375.03
2022-10-17T20:18:44.813Z,102381.31
2022-10-17T20:21:14.812Z,102383.97
2022-10-17T20:23:41.891Z,102382.19
2022-10-17T20:26:33.265Z,102384.91
2022-10-17T20:29:01.225Z,102391.16
2022-10-17T20:31:28.348Z,102392.06
2022-10-17T20:33:59.230Z,102392.94
2022-10-17T20:36:26.017Z,102392.97
2022-10-17T20:38:56.594Z,102384.00
2022-10-17T20:41:24.096Z,102386.69
2022-10-17T20:43:51.881Z,102390.25
2022-10-17T20:46:34.953Z,102382.19
2022-10-17T20:49:02.697Z,102394.72
2022-10-17T20:51:29.284Z,102392.97
2022-10-17T20:56:29.479Z,102391.16
2022-10-17T20:59:01.533Z,102395.63
2022-10-17T21:01:29.110Z,102409.09
2022-10-17T21:03:58.253Z,102413.56
2022-10-17T21:06:27.222Z,102414.41
2022-10-17T21:08:55.101Z,102425.19
2022-10-17T21:11:26.684Z,102423.41
2022-10-17T21:14:01.678Z,102434.16
2022-10-17T21:16:29.447Z,102417.09
2022-10-17T21:18:56.524Z,102427.84
2022-10-17T21:21:28.311Z,102436.81
2022-10-17T21:23:57.200Z,102441.28
2022-10-17T21:26:24.223Z,102444.00
2022-10-17T21:28:50.842Z,102443.06
2022-10-17T21:31:24.973Z,102446.66
2022-10-17T21:33:53.920Z,102446.69
2022-10-17T21:36:20.997Z,102441.28
2022-10-17T21:38:49.301Z,102444.91
2022-10-17T21:41:17.978Z,102443.97
2022-10-17T21:43:44.589Z,102456.47
2022-10-17T21:46:16.359Z,102458.28
2022-10-17T21:48:43.548Z,102457.38
2022-10-17T21:51:16.120Z,102451.13
2022-10-17T21:53:43.145Z,102459.19
2022-10-17T21:56:11.830Z,102450.22
2022-10-17T21:58:38.788Z,102452.91
2022-10-17T22:01:13.531Z,102450.25
2022-10-17T22:03:45.665Z,102441.25
2022-10-17T22:06:37.615Z,102451.06
2022-10-17T22:09:03.686Z,102452.00
2022-10-17T22:11:32.501Z,102455.59
2022-10-17T22:14:11.420Z,102447.53
2022-10-17T22:16:38.671Z,102457.38
2022-10-17T22:19:06.779Z,102454.66
2022-10-17T22:21:34.993Z,102459.19
2022-10-17T22:24:03.318Z,102453.75
2022-10-17T22:26:31.727Z,102450.25
2022-10-17T22:28:58.454Z,102451.09
2022-10-17T22:31:25.358Z,102462.72
2022-10-17T22:33:52.142Z,102456.47
2022-10-17T22:36:18.999Z,102456.50
2022-10-17T22:38:45.610Z,102455.56
2022-10-17T22:41:12.179Z,102453.81
2022-10-17T22:43:38.717Z,102462.78
2022-10-17T22:46:06.680Z,102472.59
2022-10-17T22:48:33.557Z,102456.50
2022-10-17T22:51:00.524Z,102458.25
2022-10-17T22:53:27.223Z,102455.59
2022-10-17T22:55:55.080Z,102462.75
2022-10-17T22:58:22.171Z,102457.34
2022-10-17T23:00:49.889Z,102463.66
2022-10-17T23:03:17.167Z,102473.47
2022-10-17T23:05:44.271Z,102475.22
2022-10-17T23:08:11.615Z,102474.38
2022-10-17T23:10:38.561Z,102466.25
2022-10-17T23:13:05.142Z,102474.34
2022-10-17T23:15:32.756Z,102465.41
2022-10-17T23:18:00.149Z,102475.25
2022-10-17T23:20:29.081Z,102462.72
2022-10-17T23:22:55.826Z,102469.88
2022-10-17T23:25:22.411Z,102471.63
2022-10-17T23:27:48.996Z,102475.28
2022-10-17T23:30:15.634Z,102480.59
2022-10-17T23:32:42.519Z,102483.31
2022-10-17T23:35:09.867Z,102479.72
2022-10-17T23:37:36.785Z,102477.94
2022-10-17T23:40:04.326Z,102473.47
2022-10-17T23:42:31.019Z,102482.41
2022-10-17T23:44:57.557Z,102480.63
2022-10-17T23:47:24.116Z,102488.66
2022-10-17T23:49:50.704Z,102482.41
2022-10-17T23:52:17.263Z,102479.72
2022-10-17T23:54:44.144Z,102472.56
2022-10-17T23:57:10.738Z,102477.91
2022-10-17T23:59:37.322Z,102480.66
